createdAt,value
2023-05-14T00:01:02.723Z,100.00
2023-05-14T00:03:31.374Z,100.00
2023-05-14T00:05:59.340Z,100.00
2023-05-14T00:08:27.258Z,100.00
2023-05-14T00:10:55.414Z,100.00
2023-05-14T00:13:23.305Z,100.00
2023-05-14T00:15:51.282Z,100.00
2023-05-14T00:18:19.366Z,100.00
2023-05-14T00:20:47.297Z,100.00
2023-05-14T00:23:15.110Z,100.00
2023-05-14T00:25:43.067Z,100.00
2023-05-14T00:28:10.866Z,100.00
2023-05-14T00:30:39.992Z,100.00
2023-05-14T00:33:08.438Z,100.00
2023-05-14T00:35:36.529Z,100.00
2023-05-14T00:38:04.805Z,100.00
2023-05-14T00:40:33.032Z,100.00
2023-05-14T00:43:01.514Z,100.00
2023-05-14T00:45:29.595Z,100.00
2023-05-14T00:47:57.955Z,100.00
2023-05-14T00:50:26.545Z,100.00
2023-05-14T00:52:54.812Z,100.00
2023-05-14T00:55:24.643Z,100.00
2023-05-14T00:57:54.908Z,100.00
2023-05-14T01:00:23.178Z,100.00
2023-05-14T01:02:51.598Z,100.00
2023-05-14T01:05:19.986Z,100.00
2023-05-14T01:08:07.125Z,100.00
2023-05-14T01:11:00.387Z,100.00
2023-05-14T01:13:49.686Z,100.00
2023-05-14T01:16:20.276Z,100.00
2023-05-14T01:18:52.691Z,100.00
2023-05-14T01:21:43.699Z,100.00
2023-05-14T01:24:11.788Z,100.00
2023-05-14T01:26:39.805Z,100.00
2023-05-14T01:29:16.677Z,100.00
2023-05-14T01:31:47.582Z,100.00
2023-05-14T01:34:18.632Z,100.00
2023-05-14T01:36:48.677Z,100.00
2023-05-14T01:39:18.289Z,100.00
2023-05-14T01:41:47.503Z,100.00
2023-05-14T01:44:15.553Z,100.00
2023-05-14T01:46:43.736Z,100.00
2023-05-14T01:49:11.615Z,100.00
2023-05-14T01:51:39.734Z,100.00
2023-05-14T01:54:07.878Z,100.00
2023-05-14T01:56:35.831Z,100.00
2023-05-14T01:59:03.715Z,100.00
2023-05-14T02:01:31.914Z,100.00
2023-05-14T02:04:01.186Z,100.00
2023-05-14T02:06:29.197Z,100.00
2023-05-14T02:08:57.488Z,100.00
2023-05-14T02:11:26.311Z,100.00
2023-05-14T02:13:54.329Z,100.00
2023-05-14T02:16:22.429Z,100.00
2023-05-14T02:18:52.592Z,100.00
2023-05-14T02:21:20.785Z,100.00
2023-05-14T02:23:50.563Z,100.00
2023-05-14T02:26:18.813Z,100.00
2023-05-14T02:28:46.799Z,100.00
2023-05-14T02:31:15.035Z,100.00
2023-05-14T02:33:43.155Z,100.00
2023-05-14T02:36:11.173Z,100.00
2023-05-14T02:38:39.195Z,100.00
2023-05-14T02:41:07.217Z,100.00
2023-05-14T02:43:35.161Z,100.00
2023-05-14T02:46:04.263Z,100.00
2023-05-14T02:48:32.120Z,100.00
2023-05-14T02:51:00.239Z,100.00
2023-05-14T02:53:28.432Z,100.00
2023-05-14T02:55:56.293Z,100.00
2023-05-14T02:58:24.673Z,100.00
2023-05-14T03:00:56.603Z,100.00
2023-05-14T03:03:25.440Z,100.00
2023-05-14T03:05:54.011Z,100.00
2023-05-14T03:08:22.209Z,100.00
2023-05-14T03:10:50.157Z,100.00
2023-05-14T03:13:20.082Z,100.00
2023-05-14T03:15:48.758Z,100.00
2023-05-14T03:18:18.139Z,100.00
2023-05-14T03:20:47.337Z,100.00
2023-05-14T03:23:15.534Z,100.00
2023-05-14T03:25:43.652Z,100.00
2023-05-14T03:28:11.585Z,100.00
2023-05-14T03:30:39.660Z,100.00
2023-05-14T03:33:07.698Z,100.00
2023-05-14T03:35:35.966Z,100.00
2023-05-14T03:38:04.073Z,100.00
2023-05-14T03:40:32.049Z,100.00
2023-05-14T03:42:59.985Z,100.00
2023-05-14T03:45:30.427Z,100.00
2023-05-14T03:48:00.275Z,100.00
2023-05-14T03:50:28.377Z,100.00
2023-05-14T03:52:56.485Z,100.00
2023-05-14T03:55:24.439Z,100.00
2023-05-14T03:57:52.404Z,100.00
2023-05-14T04:00:21.514Z,100.00
2023-05-14T04:02:49.954Z,100.00
2023-05-14T04:05:18.457Z,100.00
2023-05-14T04:07:47.031Z,100.00
2023-05-14T04:10:15.052Z,100.00
2023-05-14T04:12:43.745Z,100.00
2023-05-14T04:15:12.918Z,100.00
2023-05-14T04:17:41.254Z,100.00
2023-05-14T04:20:10.045Z,100.00
2023-05-14T04:22:38.373Z,100.00
2023-05-14T04:25:07.100Z,100.00
2023-05-14T04:27:35.270Z,100.00
2023-05-14T04:30:03.810Z,100.00
2023-05-14T04:32:32.458Z,100.00
2023-05-14T04:35:00.396Z,100.00
2023-05-14T04:37:29.429Z,100.00
2023-05-14T04:39:57.492Z,100.00
2023-05-14T04:42:26.691Z,100.00
2023-05-14T04:44:54.924Z,100.00
2023-05-14T04:47:22.908Z,100.00
2023-05-14T04:49:51.116Z,100.00
2023-05-14T04:52:19.537Z,100.00
2023-05-14T04:54:47.657Z,100.00
2023-05-14T04:57:16.140Z,100.00
2023-05-14T04:59:44.246Z,100.00
2023-05-14T05:02:12.386Z,100.00
2023-05-14T05:04:40.424Z,100.00
2023-05-14T05:07:08.581Z,100.00
2023-05-14T05:09:36.462Z,100.00
2023-05-14T05:12:04.777Z,100.00
2023-05-14T05:14:32.783Z,100.00
2023-05-14T05:17:00.824Z,100.00
2023-05-14T05:19:39.754Z,100.00
2023-05-14T05:22:12.003Z,100.00
2023-05-14T05:24:39.989Z,100.00
2023-05-14T05:27:07.886Z,100.00
2023-05-14T05:29:38.037Z,100.00
2023-05-14T05:32:07.197Z,100.00
2023-05-14T05:34:36.594Z,100.00
2023-05-14T05:37:06.165Z,100.00
2023-05-14T05:39:35.234Z,100.00
2023-05-14T05:42:05.996Z,100.00
2023-05-14T05:44:34.374Z,100.00
2023-05-14T05:47:02.757Z,100.00
2023-05-14T05:49:31.073Z,100.00
2023-05-14T05:51:59.651Z,100.00
2023-05-14T05:54:27.607Z,100.00
2023-05-14T05:56:55.718Z,100.00
2023-05-14T05:59:24.891Z,100.00
2023-05-14T06:01:53.160Z,100.00
2023-05-14T06:04:21.220Z,100.00
2023-05-14T06:06:49.413Z,100.00
2023-05-14T06:09:17.751Z,100.00
2023-05-14T06:11:46.115Z,100.00
2023-05-14T06:14:14.186Z,100.00
2023-05-14T06:16:42.364Z,100.00
2023-05-14T06:19:11.333Z,100.00
2023-05-14T06:21:39.490Z,100.00
2023-05-14T06:24:07.919Z,100.00
2023-05-14T06:26:35.940Z,100.00
2023-05-14T06:29:04.235Z,99.97
2023-05-14T06:31:32.549Z,95.33
2023-05-14T06:34:01.146Z,93.39
2023-05-14T06:36:29.363Z,91.79
2023-05-14T06:38:57.696Z,89.13
2023-05-14T06:41:27.498Z,90.99
2023-05-14T06:43:55.785Z,88.75
2023-05-14T06:46:23.967Z,86.85
2023-05-14T06:48:51.970Z,85.37
2023-05-14T06:51:20.674Z,84.43
2023-05-14T06:53:49.002Z,84.74
2023-05-14T06:56:17.120Z,85.41
2023-05-14T06:58:45.896Z,81.82
2023-05-14T07:01:15.370Z,79.31
2023-05-14T07:03:43.344Z,79.09
2023-05-14T07:06:13.571Z,76.89
2023-05-14T07:08:46.026Z,75.13
2023-05-14T07:11:15.021Z,74.71
2023-05-14T07:13:43.525Z,73.61
2023-05-14T07:16:11.972Z,73.63
2023-05-14T07:18:40.578Z,72.30
2023-05-14T07:21:09.215Z,72.38
2023-05-14T07:23:38.496Z,69.80
2023-05-14T07:26:06.732Z,71.04
2023-05-14T07:28:35.685Z,71.25
2023-05-14T07:31:09.062Z,69.25
2023-05-14T07:33:37.465Z,70.33
2023-05-14T07:36:06.193Z,70.10
2023-05-14T07:38:34.377Z,70.15
2023-05-14T07:41:02.909Z,69.07
2023-05-14T07:43:32.738Z,68.33
2023-05-14T07:46:00.657Z,67.33
2023-05-14T07:48:28.808Z,67.35
2023-05-14T07:50:56.760Z,67.68
2023-05-14T07:53:25.055Z,66.66
2023-05-14T07:55:53.620Z,65.25
2023-05-14T07:58:21.687Z,66.25
2023-05-14T08:00:49.629Z,66.11
2023-05-14T08:03:17.849Z,66.49
2023-05-14T08:05:46.023Z,65.69
2023-05-14T08:08:14.060Z,66.92
2023-05-14T08:10:42.087Z,65.64
2023-05-14T08:13:10.213Z,65.54
2023-05-14T08:15:38.266Z,64.02
2023-05-14T08:18:06.579Z,64.14
2023-05-14T08:20:34.554Z,63.88
2023-05-14T08:23:02.507Z,63.33
2023-05-14T08:25:31.123Z,63.32
2023-05-14T08:28:00.062Z,63.85
2023-05-14T08:30:28.924Z,65.04
2023-05-14T08:32:59.477Z,64.19
2023-05-14T08:35:27.981Z,64.95
2023-05-14T08:37:57.464Z,63.19
2023-05-14T08:40:26.889Z,63.35
2023-05-14T08:42:57.338Z,62.30
2023-05-14T08:45:34.318Z,61.43
2023-05-14T08:48:09.362Z,62.05
2023-05-14T08:50:37.996Z,62.58
2023-05-14T08:53:06.409Z,61.09
2023-05-14T08:55:35.543Z,61.90
2023-05-14T08:58:04.145Z,61.14
2023-05-14T09:00:33.292Z,63.39
2023-05-14T09:03:01.682Z,63.00
2023-05-14T09:05:30.213Z,60.81
2023-05-14T09:07:58.349Z,63.77
2023-05-14T09:10:26.892Z,62.02
2023-05-14T09:12:55.412Z,63.74
2023-05-14T09:15:28.029Z,64.71
2023-05-14T09:17:57.114Z,64.17
2023-05-14T09:20:26.284Z,63.42
2023-05-14T09:22:55.235Z,65.64
2023-05-14T09:25:28.692Z,63.31
2023-05-14T09:27:58.688Z,66.38
2023-05-14T09:30:27.423Z,63.12
2023-05-14T09:32:55.822Z,62.22
2023-05-14T09:35:25.524Z,63.23
2023-05-14T09:37:55.753Z,63.92
2023-05-14T09:40:25.159Z,61.37
2023-05-14T09:42:53.491Z,62.79
2023-05-14T09:45:21.503Z,61.66
2023-05-14T09:47:50.194Z,63.39
2023-05-14T09:50:19.968Z,60.83
2023-05-14T09:52:48.396Z,62.72
2023-05-14T09:55:16.584Z,60.16
2023-05-14T09:57:45.184Z,59.90
2023-05-14T10:00:14.224Z,60.60
2023-05-14T10:02:45.994Z,60.27
2023-05-14T10:05:16.074Z,60.55
2023-05-14T10:07:48.974Z,60.85
2023-05-14T10:10:21.414Z,59.40
2023-05-14T10:13:06.885Z,58.97
2023-05-14T10:15:57.404Z,59.08
2023-05-14T10:18:29.422Z,59.90
2023-05-14T10:21:08.502Z,58.66
2023-05-14T10:23:39.174Z,58.82
2023-05-14T10:26:08.198Z,58.69
2023-05-14T10:28:36.821Z,59.65
2023-05-14T10:31:05.134Z,61.04
2023-05-14T10:33:51.050Z,61.13
2023-05-14T10:36:21.418Z,60.76
2023-05-14T10:38:57.429Z,57.43
2023-05-14T10:41:26.014Z,58.44
2023-05-14T10:43:54.345Z,56.94
2023-05-14T10:46:23.227Z,59.88
2023-05-14T10:48:51.971Z,54.71
2023-05-14T10:51:23.232Z,57.30
2023-05-14T10:53:52.747Z,56.64
2023-05-14T10:56:21.602Z,54.76
2023-05-14T10:58:50.650Z,53.43
2023-05-14T11:01:20.080Z,52.51
2023-05-14T11:03:53.192Z,55.20
2023-05-14T11:06:21.669Z,52.96
2023-05-14T11:08:51.829Z,53.96
2023-05-14T11:11:19.746Z,52.48
2023-05-14T11:13:49.066Z,54.40
2023-05-14T11:16:23.475Z,51.93
2023-05-14T11:19:03.759Z,53.61
2023-05-14T11:21:34.913Z,54.63
2023-05-14T11:24:05.473Z,55.48
2023-05-14T11:26:34.356Z,53.76
2023-05-14T11:29:02.533Z,54.50
2023-05-14T11:31:30.920Z,53.65
2023-05-14T11:33:58.956Z,53.55
2023-05-14T11:36:27.101Z,54.65
2023-05-14T11:38:55.687Z,52.83
2023-05-14T11:41:24.034Z,53.11
2023-05-14T11:43:52.110Z,54.06
2023-05-14T11:46:20.252Z,53.86
2023-05-14T11:48:48.487Z,54.32
2023-05-14T11:51:16.881Z,53.68
2023-05-14T11:53:47.048Z,53.83
2023-05-14T11:56:16.136Z,53.84
2023-05-14T11:58:49.570Z,55.20
2023-05-14T12:01:17.666Z,54.23
2023-05-14T12:03:45.865Z,55.44
2023-05-14T12:06:14.050Z,54.78
2023-05-14T12:08:42.071Z,54.06
2023-05-14T12:11:10.099Z,54.92
2023-05-14T12:13:39.683Z,54.86
2023-05-14T12:16:07.810Z,53.69
2023-05-14T12:18:36.027Z,53.41
2023-05-14T12:21:08.313Z,53.01
2023-05-14T12:23:39.131Z,54.54
2023-05-14T12:26:09.065Z,53.18
2023-05-14T12:28:43.594Z,53.48
2023-05-14T12:31:12.397Z,54.25
2023-05-14T12:33:40.495Z,55.26
2023-05-14T12:38:41.381Z,52.82
2023-05-14T12:41:09.408Z,54.23
2023-05-14T12:43:37.286Z,53.95
2023-05-14T12:46:05.547Z,54.21
2023-05-14T12:48:33.452Z,54.61
2023-05-14T12:51:01.588Z,54.47
2023-05-14T12:53:29.940Z,54.74
2023-05-14T12:55:58.523Z,54.57
2023-05-14T12:58:26.589Z,54.77
2023-05-14T13:00:54.886Z,54.59
2023-05-14T13:03:23.295Z,54.30
2023-05-14T13:05:54.919Z,55.69
2023-05-14T13:08:25.365Z,52.15
2023-05-14T13:10:54.805Z,52.55
2023-05-14T13:13:23.535Z,53.06
2023-05-14T13:15:53.067Z,53.70
2023-05-14T13:18:21.285Z,54.04
2023-05-14T13:20:49.522Z,54.48
2023-05-14T13:23:17.456Z,54.00
2023-05-14T13:25:46.530Z,54.51
2023-05-14T13:28:16.359Z,54.42
2023-05-14T13:31:14.501Z,54.30
2023-05-14T13:33:44.688Z,53.37
2023-05-14T13:36:15.436Z,54.73
2023-05-14T13:38:45.844Z,54.69
2023-05-14T13:41:14.089Z,53.99
2023-05-14T13:43:42.047Z,52.37
2023-05-14T13:46:10.045Z,53.37
2023-05-14T13:48:38.292Z,53.00
2023-05-14T13:51:06.587Z,51.88
2023-05-14T13:53:34.735Z,51.87
2023-05-14T13:56:03.413Z,52.11
2023-05-14T13:58:31.446Z,51.37
2023-05-14T14:00:59.879Z,51.23
2023-05-14T14:03:28.070Z,51.36
2023-05-14T14:05:56.008Z,52.48
2023-05-14T14:08:24.743Z,52.03
2023-05-14T14:10:55.583Z,53.01
2023-05-14T14:13:24.473Z,50.51
2023-05-14T14:15:52.819Z,51.19
2023-05-14T14:18:21.519Z,51.71
2023-05-14T14:20:49.825Z,50.23
2023-05-14T14:23:18.032Z,49.99
2023-05-14T14:25:45.938Z,49.48
2023-05-14T14:28:13.972Z,50.44
2023-05-14T14:30:44.016Z,50.46
2023-05-14T14:33:12.349Z,50.83
2023-05-14T14:35:40.293Z,50.26
2023-05-14T14:38:08.515Z,50.40
2023-05-14T14:40:36.751Z,49.74
2023-05-14T14:43:04.694Z,50.18
2023-05-14T14:45:32.762Z,50.13
2023-05-14T14:48:25.135Z,49.33
2023-05-14T14:50:54.879Z,49.27
2023-05-14T14:53:24.054Z,49.90
2023-05-14T14:55:52.536Z,50.79
2023-05-14T14:58:21.321Z,49.30
2023-05-14T15:00:57.230Z,50.02
2023-05-14T15:03:26.261Z,49.79
2023-05-14T15:05:54.520Z,49.58
2023-05-14T15:08:27.855Z,51.39
2023-05-14T15:10:56.608Z,49.94
2023-05-14T15:13:25.201Z,50.71
2023-05-14T15:15:53.449Z,50.76
2023-05-14T15:18:21.418Z,50.73
2023-05-14T15:20:49.421Z,49.68
2023-05-14T15:23:17.801Z,48.83
2023-05-14T15:25:45.791Z,48.91
2023-05-14T15:28:13.891Z,49.44
2023-05-14T15:30:41.804Z,49.51
2023-05-14T15:33:11.042Z,50.84
2023-05-14T15:35:39.295Z,49.72
2023-05-14T15:38:07.586Z,49.24
2023-05-14T15:40:35.661Z,50.33
2023-05-14T15:43:03.955Z,48.79
2023-05-14T15:45:31.918Z,49.74
2023-05-14T15:48:00.100Z,49.64
2023-05-14T15:50:28.453Z,50.63
2023-05-14T15:52:56.374Z,50.96
2023-05-14T15:55:24.344Z,50.93
2023-05-14T15:57:53.028Z,50.59
2023-05-14T16:00:21.869Z,50.27
2023-05-14T16:02:50.004Z,49.99
2023-05-14T16:05:18.351Z,51.21
2023-05-14T16:07:46.591Z,51.26
2023-05-14T16:10:14.857Z,50.49
2023-05-14T16:12:43.050Z,51.58
2023-05-14T16:15:11.729Z,51.30
2023-05-14T16:17:40.066Z,51.63
2023-05-14T16:20:09.164Z,51.87
2023-05-14T16:22:37.187Z,52.30
2023-05-14T16:25:06.060Z,52.20
2023-05-14T16:27:34.595Z,52.33
2023-05-14T16:30:02.658Z,53.07
2023-05-14T16:32:30.796Z,53.47
2023-05-14T16:34:58.964Z,53.49
2023-05-14T16:37:27.100Z,53.64
2023-05-14T16:39:55.532Z,54.10
2023-05-14T16:42:23.787Z,54.56
2023-05-14T16:44:51.777Z,54.99
2023-05-14T16:47:20.486Z,55.28
2023-05-14T16:49:48.655Z,56.03
2023-05-14T16:52:16.677Z,56.41
2023-05-14T16:54:45.610Z,57.09
2023-05-14T16:57:14.126Z,57.50
2023-05-14T16:59:42.401Z,58.01
2023-05-14T17:02:11.788Z,58.14
2023-05-14T17:04:42.227Z,58.71
2023-05-14T17:07:12.396Z,58.96
2023-05-14T17:09:40.841Z,59.33
2023-05-14T17:12:11.216Z,59.49
2023-05-14T17:14:39.406Z,60.15
2023-05-14T17:17:07.692Z,60.31
2023-05-14T17:19:35.621Z,60.81
2023-05-14T17:22:05.954Z,61.00
2023-05-14T17:24:35.509Z,61.29
2023-05-14T17:27:03.612Z,62.22
2023-05-14T17:29:31.956Z,62.19
2023-05-14T17:32:00.309Z,63.05
2023-05-14T17:34:28.484Z,63.47
2023-05-14T17:36:56.500Z,63.73
2023-05-14T17:39:24.545Z,64.03
2023-05-14T17:41:52.871Z,64.03
2023-05-14T17:44:21.229Z,64.05
2023-05-14T17:46:49.780Z,64.44
2023-05-14T17:49:17.818Z,64.00
2023-05-14T17:51:46.212Z,64.18
2023-05-14T17:54:14.315Z,64.17
2023-05-14T17:56:42.425Z,64.19
2023-05-14T17:59:11.325Z,64.69
2023-05-14T18:01:39.885Z,65.19
2023-05-14T18:04:08.244Z,65.40
2023-05-14T18:06:36.509Z,65.38
2023-05-14T18:09:04.906Z,66.13
2023-05-14T18:11:34.103Z,65.92
2023-05-14T18:14:02.524Z,66.05
2023-05-14T18:16:31.690Z,66.12
2023-05-14T18:19:02.909Z,66.17
2023-05-14T18:21:31.667Z,66.05
2023-05-14T18:23:59.790Z,66.73
2023-05-14T18:26:28.543Z,67.09
2023-05-14T18:28:59.327Z,67.20
2023-05-14T18:31:28.681Z,67.48
2023-05-14T18:33:56.992Z,67.88
2023-05-14T18:36:25.014Z,68.30
2023-05-14T18:38:53.128Z,68.98
2023-05-14T18:41:21.561Z,69.47
2023-05-14T18:43:50.133Z,69.62
2023-05-14T18:46:18.292Z,69.74
2023-05-14T18:48:46.802Z,70.08
2023-05-14T18:51:14.804Z,70.23
2023-05-14T18:53:42.761Z,71.57
2023-05-14T18:56:11.535Z,71.81
2023-05-14T18:58:39.734Z,72.60
2023-05-14T19:01:08.090Z,73.45
2023-05-14T19:03:36.780Z,74.29
2023-05-14T19:06:05.075Z,74.89
2023-05-14T19:08:33.163Z,76.18
2023-05-14T19:11:01.810Z,76.55
2023-05-14T19:13:30.383Z,76.56
2023-05-14T19:15:58.712Z,76.90
2023-05-14T19:18:27.048Z,77.11
2023-05-14T19:20:56.866Z,77.40
2023-05-14T19:23:24.930Z,78.02
2023-05-14T19:25:53.095Z,78.00
2023-05-14T19:28:21.442Z,78.42
2023-05-14T19:30:51.261Z,78.53
2023-05-14T19:33:20.001Z,78.62
2023-05-14T19:35:48.057Z,78.77
2023-05-14T19:38:16.391Z,79.27
2023-05-14T19:40:45.150Z,79.76
2023-05-14T19:43:13.731Z,80.31
2023-05-14T19:45:42.852Z,80.68
2023-05-14T19:48:12.615Z,80.43
2023-05-14T19:50:41.691Z,80.88
2023-05-14T19:53:10.014Z,81.22
2023-05-14T19:55:38.044Z,81.10
2023-05-14T19:58:06.312Z,82.03
2023-05-14T20:00:34.746Z,82.27
2023-05-14T20:03:03.829Z,82.52
2023-05-14T20:05:37.044Z,82.71
2023-05-14T20:08:08.413Z,82.21
2023-05-14T20:10:36.745Z,83.23
2023-05-14T20:13:05.473Z,82.96
2023-05-14T20:15:34.368Z,82.85
2023-05-14T20:18:02.944Z,82.93
2023-05-14T20:20:33.262Z,82.99
2023-05-14T20:23:02.266Z,83.08
2023-05-14T20:25:32.781Z,83.21
2023-05-14T20:28:01.294Z,83.60
2023-05-14T20:30:29.939Z,83.38
2023-05-14T20:32:58.372Z,84.05
2023-05-14T20:35:27.006Z,84.35
2023-05-14T20:37:56.759Z,84.87
2023-05-14T20:40:25.947Z,85.19
2023-05-14T20:42:54.057Z,85.67
2023-05-14T20:45:22.761Z,85.84
2023-05-14T20:47:51.829Z,86.23
2023-05-14T20:50:20.012Z,86.13
2023-05-14T20:52:48.314Z,86.67
2023-05-14T20:55:16.956Z,86.46
2023-05-14T20:57:45.115Z,86.74
2023-05-14T21:00:13.893Z,86.65
2023-05-14T21:02:42.318Z,86.92
2023-05-14T21:05:10.974Z,87.10
2023-05-14T21:07:39.615Z,87.33
2023-05-14T21:10:09.962Z,88.04
2023-05-14T21:12:38.315Z,88.31
2023-05-14T21:15:07.401Z,88.13
2023-05-14T21:17:35.735Z,87.85
2023-05-14T21:20:04.079Z,88.00
2023-05-14T21:22:32.454Z,87.95
2023-05-14T21:25:00.483Z,88.11
2023-05-14T21:27:28.732Z,88.73
2023-05-14T21:29:56.917Z,88.97
2023-05-14T21:32:25.708Z,89.20
2023-05-14T21:34:54.149Z,89.45
2023-05-14T21:37:22.939Z,89.35
2023-05-14T21:39:51.196Z,90.04
2023-05-14T21:42:22.082Z,90.34
2023-05-14T21:44:50.347Z,90.74
2023-05-14T21:47:19.925Z,90.84
2023-05-14T21:49:47.945Z,90.59
2023-05-14T21:52:16.346Z,90.91
2023-05-14T21:54:44.536Z,91.08
2023-05-14T21:57:12.622Z,90.91
2023-05-14T21:59:40.698Z,91.34
2023-05-14T22:02:08.874Z,91.05
2023-05-14T22:04:37.197Z,91.07
2023-05-14T22:07:05.512Z,91.38
2023-05-14T22:09:33.888Z,90.95
2023-05-14T22:12:02.017Z,91.42
2023-05-14T22:14:29.936Z,91.60
2023-05-14T22:16:58.275Z,91.63
2023-05-14T22:19:27.285Z,91.31
2023-05-14T22:21:55.498Z,91.62
2023-05-14T22:24:24.006Z,91.76
2023-05-14T22:26:51.963Z,92.11
2023-05-14T22:29:20.005Z,92.57
2023-05-14T22:31:48.960Z,92.73
2023-05-14T22:34:17.115Z,93.33
2023-05-14T22:36:44.977Z,94.07
2023-05-14T22:39:13.649Z,95.40
2023-05-14T22:41:41.893Z,95.97
2023-05-14T22:44:10.062Z,96.01
2023-05-14T22:46:38.217Z,96.17
2023-05-14T22:49:06.446Z,96.34
2023-05-14T22:51:34.591Z,96.89
2023-05-14T22:54:05.982Z,96.88
2023-05-14T22:56:34.083Z,98.04
2023-05-14T22:59:02.090Z,97.55
2023-05-14T23:01:31.573Z,97.67
2023-05-14T23:03:59.502Z,97.87
2023-05-14T23:06:27.381Z,97.80
2023-05-14T23:08:56.340Z,98.38
2023-05-14T23:11:26.690Z,98.53
2023-05-14T23:13:54.761Z,99.07
2023-05-14T23:16:22.677Z,99.41
2023-05-14T23:18:50.745Z,99.43
2023-05-14T23:21:18.849Z,99.31
2023-05-14T23:23:46.885Z,99.10
2023-05-14T23:26:14.897Z,98.89
2023-05-14T23:28:42.783Z,98.84
2023-05-14T23:31:10.890Z,98.82
2023-05-14T23:33:39.900Z,98.47
2023-05-14T23:36:08.534Z,99.04
2023-05-14T23:38:37.162Z,99.80
2023-05-14T23:41:05.396Z,99.83
2023-05-14T23:43:33.895Z,100.00
2023-05-14T23:46:02.438Z,100.00
2023-05-14T23:48:30.754Z,100.00
2023-05-14T23:50:58.619Z,100.00
2023-05-14T23:53:26.659Z,100.00
2023-05-14T23:55:54.626Z,100.00
2023-05-14T23:58:22.818Z,100.00
